Hyalite Weather Station

This weather station provides temperature, wind speed, gust or max wind speed, and wind direction at 9982ft near the summit of Flanders Mountain. This data can be used with temperature and precipitation data from the Shower Falls SNOTEL site. If the data has not been updated recently you can view it directly on datagarrison.com

Elevation
9982ft
Jump to table bottom
Date Time Temperature
deg F
RH, % Wind Speed Wind Gust Wind Direction
01/18/20 14:00 12.0 81 12 20 SW - 243
01/18/20 13:00 11.0 82 10 18 SW - 246
01/18/20 12:00 10.9 86 9 17 SW - 246
01/18/20 11:00 9.1 90 11 21 W - 254
01/18/20 10:00 7.0 90 13 22 SW - 246
01/18/20 09:00 5.4 89 13 22 W - 248
01/18/20 08:00 4.2 89 15 27 W - 253
01/18/20 07:00 3.9 88 18 28 W - 254
01/18/20 06:00 4.3 85 20 31 W - 251
01/18/20 05:00 2.8 84 21 36 W - 251
01/18/20 04:00 2.4 84 17 29 SW - 247
01/18/20 03:00 1.7 84 18 33 W - 251
01/18/20 02:00 2.4 85 19 37 W - 254
01/18/20 01:00 2.2 86 23 39 W - 248
01/18/20 00:00 2.4 83 21 41 W - 250
01/17/20 23:00 2.6 75 23 40 W - 265
01/17/20 22:00 2.6 72 24 42 W - 265
01/17/20 21:00 2.6 74 23 41 W - 265
01/17/20 20:00 2.3 76 25 42 W - 257
01/17/20 19:00 2.5 73 23 37 W - 256
01/17/20 18:00 3.1 76 20 43 W - 265
01/17/20 17:00 3.9 88 16 31 W - 267
01/17/20 16:00 5.3 90 18 34 W - 272
01/17/20 15:00 5.0 90 18 40 W - 271
01/17/20 14:00 4.4 90 20 34 W - 267
01/17/20 13:00 5.4 90 16 28 W - 275
01/17/20 12:00 6.2 90 15 30 W - 288
01/17/20 11:00 6.2 90 14 31 W - 292
01/17/20 10:00 8.4 91 14 32 NW - 293
01/17/20 09:00 13.9 93 11 23 W - 258
01/17/20 08:00 15.0 93 17 33 SW - 244
01/17/20 07:00 15.5 93 25 36 SW - 234
01/17/20 06:00 15.3 92 26 40 SW - 226
01/17/20 05:00 15.5 90 24 37 SW - 226
01/17/20 04:00 16.3 88 26 48 SW - 216
01/17/20 03:00 16.5 88 26 46 SW - 215
01/17/20 02:00 16.8 86 27 50 SW - 206
01/17/20 01:00 17.1 86 26 58 SW - 205
01/17/20 00:00 18.2 81 23 45 SW - 212
01/16/20 23:00 19.2 66 26 48 SW - 215
01/16/20 22:00 20.6 61 25 45 SW - 219
01/16/20 21:00 19.9 63 28 48 SW - 219
01/16/20 20:00 20.6 65 31 53 SW - 222
01/16/20 19:00 20.4 66 31 56 SW - 219
01/16/20 18:00 20.3 78 30 56 SW - 212
01/16/20 17:00 19.2 80 24 47 SW - 220
01/16/20 16:00 18.6 74 29 45 SW - 222
01/16/20 15:00 19.5 66 27 46 SW - 232
01/16/20 14:00 20.7 65 33 48 SW - 234
01/16/20 13:00 20.5 65 31 46 SW - 234